sensor_id;sensor_type;location;lat;lon;timestamp;P1;durP1;ratioP1;P2;durP2;ratioP2
8401;SDS011;4238;48.404;9.498;2022-07-06T00:00:02;3.17;;;2.97;;
8401;SDS011;4238;48.404;9.498;2022-07-06T00:02:29;2.92;;;2.72;;
8401;SDS011;4238;48.404;9.498;2022-07-06T00:04:56;2.67;;;2.50;;
8401;SDS011;4238;48.404;9.498;2022-07-06T00:07:25;3.05;;;2.85;;
8401;SDS011;4238;48.404;9.498;2022-07-06T00:09:52;3.05;;;2.80;;
8401;SDS011;4238;48.404;9.498;2022-07-06T00:12:19;2.80;;;2.55;;
8401;SDS011;4238;48.404;9.498;2022-07-06T00:14:46;2.50;;;2.40;;
8401;SDS011;4238;48.404;9.498;2022-07-06T00:17:12;3.45;;;3.15;;
8401;SDS011;4238;48.404;9.498;2022-07-06T00:19:39;3.10;;;2.85;;
8401;SDS011;4238;48.404;9.498;2022-07-06T00:22:06;3.00;;;2.80;;
8401;SDS011;4238;48.404;9.498;2022-07-06T00:24:35;3.10;;;2.90;;
8401;SDS011;4238;48.404;9.498;2022-07-06T00:27:06;2.92;;;2.67;;
8401;SDS011;4238;48.404;9.498;2022-07-06T00:29:33;3.97;;;3.08;;
8401;SDS011;4238;48.404;9.498;2022-07-06T00:32:00;2.75;;;2.55;;
8401;SDS011;4238;48.404;9.498;2022-07-06T00:34:27;2.80;;;2.60;;
8401;SDS011;4238;48.404;9.498;2022-07-06T00:36:54;3.10;;;2.88;;
8401;SDS011;4238;48.404;9.498;2022-07-06T00:39:20;2.55;;;2.45;;
8401;SDS011;4238;48.404;9.498;2022-07-06T00:41:55;2.70;;;2.60;;
8401;SDS011;4238;48.404;9.498;2022-07-06T00:44:22;3.17;;;2.90;;
8401;SDS011;4238;48.404;9.498;2022-07-06T00:46:49;2.83;;;2.72;;
8401;SDS011;4238;48.404;9.498;2022-07-06T00:49:16;2.80;;;2.70;;
8401;SDS011;4238;48.404;9.498;2022-07-06T00:51:57;3.75;;;3.00;;
8401;SDS011;4238;48.404;9.498;2022-07-06T00:54:25;3.60;;;2.90;;
8401;SDS011;4238;48.404;9.498;2022-07-06T00:56:52;2.83;;;2.72;;
8401;SDS011;4238;48.404;9.498;2022-07-06T00:59:21;2.85;;;2.65;;
8401;SDS011;4238;48.404;9.498;2022-07-06T01:01:52;2.67;;;2.58;;
8401;SDS011;4238;48.404;9.498;2022-07-06T01:04:19;2.75;;;2.47;;
8401;SDS011;4238;48.404;9.498;2022-07-06T01:06:46;3.28;;;3.08;;
8401;SDS011;4238;48.404;9.498;2022-07-06T01:09:13;2.65;;;2.40;;
8401;SDS011;4238;48.404;9.498;2022-07-06T01:11:40;3.10;;;2.80;;
8401;SDS011;4238;48.404;9.498;2022-07-06T01:14:09;3.17;;;2.80;;
8401;SDS011;4238;48.404;9.498;2022-07-06T01:16:36;2.97;;;2.78;;
8401;SDS011;4238;48.404;9.498;2022-07-06T01:19:03;3.15;;;2.95;;
8401;SDS011;4238;48.404;9.498;2022-07-06T01:21:31;2.40;;;2.25;;
8401;SDS011;4238;48.404;9.498;2022-07-06T01:24:00;3.03;;;2.72;;
8401;SDS011;4238;48.404;9.498;2022-07-06T01:26:27;2.55;;;2.45;;
8401;SDS011;4238;48.404;9.498;2022-07-06T01:28:54;3.22;;;3.03;;
8401;SDS011;4238;48.404;9.498;2022-07-06T01:31:22;2.70;;;2.60;;
8401;SDS011;4238;48.404;9.498;2022-07-06T01:33:51;3.17;;;2.97;;
8401;SDS011;4238;48.404;9.498;2022-07-06T01:36:20;3.15;;;2.95;;
8401;SDS011;4238;48.404;9.498;2022-07-06T01:38:49;2.97;;;2.80;;
8401;SDS011;4238;48.404;9.498;2022-07-06T01:41:17;3.05;;;2.83;;
8401;SDS011;4238;48.404;9.498;2022-07-06T01:43:45;3.15;;;2.85;;
8401;SDS011;4238;48.404;9.498;2022-07-06T01:46:12;3.70;;;3.40;;
8401;SDS011;4238;48.404;9.498;2022-07-06T01:48:40;2.95;;;2.75;;
8401;SDS011;4238;48.404;9.498;2022-07-06T01:51:08;2.95;;;2.75;;
8401;SDS011;4238;48.404;9.498;2022-07-06T01:53:35;3.00;;;2.80;;
8401;SDS011;4238;48.404;9.498;2022-07-06T01:56:04;3.22;;;3.03;;
8401;SDS011;4238;48.404;9.498;2022-07-06T01:58:31;3.72;;;3.00;;
8401;SDS011;4238;48.404;9.498;2022-07-06T02:00:58;4.03;;;3.33;;
8401;SDS011;4238;48.404;9.498;2022-07-06T02:03:25;3.45;;;3.10;;
8401;SDS011;4238;48.404;9.498;2022-07-06T02:05:52;3.95;;;2.97;;
8401;SDS011;4238;48.404;9.498;2022-07-06T02:08:19;3.75;;;3.28;;
8401;SDS011;4238;48.404;9.498;2022-07-06T02:10:46;3.25;;;3.05;;
8401;SDS011;4238;48.404;9.498;2022-07-06T02:13:14;3.22;;;2.80;;
8401;SDS011;4238;48.404;9.498;2022-07-06T02:15:41;3.55;;;3.25;;
8401;SDS011;4238;48.404;9.498;2022-07-06T02:18:08;3.30;;;3.10;;
8401;SDS011;4238;48.404;9.498;2022-07-06T02:20:35;3.10;;;2.90;;
8401;SDS011;4238;48.404;9.498;2022-07-06T02:23:02;4.07;;;3.00;;
8401;SDS011;4238;48.404;9.498;2022-07-06T02:25:29;3.72;;;3.47;;
8401;SDS011;4238;48.404;9.498;2022-07-06T02:27:56;3.70;;;3.40;;
8401;SDS011;4238;48.404;9.498;2022-07-06T02:30:24;3.10;;;2.90;;
8401;SDS011;4238;48.404;9.498;2022-07-06T02:32:51;3.05;;;2.85;;
8401;SDS011;4238;48.404;9.498;2022-07-06T02:35:18;5.22;;;3.63;;
8401;SDS011;4238;48.404;9.498;2022-07-06T02:37:45;3.97;;;3.47;;
8401;SDS011;4238;48.404;9.498;2022-07-06T02:40:12;3.92;;;3.70;;
8401;SDS011;4238;48.404;9.498;2022-07-06T02:42:39;3.28;;;3.00;;
8401;SDS011;4238;48.404;9.498;2022-07-06T02:45:26;3.70;;;3.50;;
8401;SDS011;4238;48.404;9.498;2022-07-06T02:47:53;3.83;;;3.38;;
8401;SDS011;4238;48.404;9.498;2022-07-06T02:50:21;3.45;;;3.25;;
8401;SDS011;4238;48.404;9.498;2022-07-06T02:52:48;3.58;;;3.28;;
8401;SDS011;4238;48.404;9.498;2022-07-06T02:55:15;3.90;;;3.60;;
8401;SDS011;4238;48.404;9.498;2022-07-06T02:57:42;3.97;;;3.30;;
8401;SDS011;4238;48.404;9.498;2022-07-06T03:00:12;3.60;;;3.30;;
8401;SDS011;4238;48.404;9.498;2022-07-06T03:02:41;3.42;;;3.15;;
8401;SDS011;4238;48.404;9.498;2022-07-06T03:05:08;3.10;;;2.90;;
8401;SDS011;4238;48.404;9.498;2022-07-06T03:07:35;3.72;;;3.42;;
8401;SDS011;4238;48.404;9.498;2022-07-06T03:10:02;3.42;;;3.15;;
8401;SDS011;4238;48.404;9.498;2022-07-06T03:12:30;3.67;;;3.10;;
8401;SDS011;4238;48.404;9.498;2022-07-06T03:14:56;3.22;;;3.03;;
8401;SDS011;4238;48.404;9.498;2022-07-06T03:17:23;3.42;;;3.17;;
8401;SDS011;4238;48.404;9.498;2022-07-06T03:19:52;2.90;;;2.80;;
8401;SDS011;4238;48.404;9.498;2022-07-06T03:22:19;3.40;;;3.10;;
8401;SDS011;4238;48.404;9.498;2022-07-06T03:24:46;3.67;;;3.07;;
8401;SDS011;4238;48.404;9.498;2022-07-06T03:27:13;4.03;;;3.55;;
8401;SDS011;4238;48.404;9.498;2022-07-06T03:29:40;3.50;;;3.25;;
8401;SDS011;4238;48.404;9.498;2022-07-06T03:32:07;3.75;;;3.45;;
8401;SDS011;4238;48.404;9.498;2022-07-06T03:34:34;3.58;;;3.28;;
8401;SDS011;4238;48.404;9.498;2022-07-06T03:37:03;3.70;;;3.35;;
8401;SDS011;4238;48.404;9.498;2022-07-06T03:39:31;3.85;;;3.33;;
8401;SDS011;4238;48.404;9.498;2022-07-06T03:41:58;3.50;;;3.28;;
8401;SDS011;4238;48.404;9.498;2022-07-06T03:44:25;3.70;;;3.47;;
8401;SDS011;4238;48.404;9.498;2022-07-06T03:46:52;4.00;;;3.70;;
8401;SDS011;4238;48.404;9.498;2022-07-06T03:49:20;4.10;;;3.70;;
8401;SDS011;4238;48.404;9.498;2022-07-06T03:51:47;3.28;;;3.05;;
8401;SDS011;4238;48.404;9.498;2022-07-06T03:54:15;3.70;;;3.40;;
8401;SDS011;4238;48.404;9.498;2022-07-06T03:56:42;3.45;;;3.20;;
8401;SDS011;4238;48.404;9.498;2022-07-06T03:59:09;3.58;;;3.38;;
8401;SDS011;4238;48.404;9.498;2022-07-06T04:01:36;3.33;;;3.03;;
8401;SDS011;4238;48.404;9.498;2022-07-06T04:04:03;3.90;;;3.50;;
8401;SDS011;4238;48.404;9.498;2022-07-06T04:06:30;3.40;;;3.20;;
8401;SDS011;4238;48.404;9.498;2022-07-06T04:08:59;3.73;;;3.43;;
8401;SDS011;4238;48.404;9.498;2022-07-06T04:11:28;4.20;;;3.80;;
8401;SDS011;4238;48.404;9.498;2022-07-06T04:13:55;3.93;;;3.63;;
8401;SDS011;4238;48.404;9.498;2022-07-06T04:16:21;3.85;;;3.55;;
8401;SDS011;4238;48.404;9.498;2022-07-06T04:18:48;3.92;;;3.65;;
8401;SDS011;4238;48.404;9.498;2022-07-06T04:21:15;3.70;;;3.45;;
8401;SDS011;4238;48.404;9.498;2022-07-06T04:23:42;4.60;;;4.28;;
8401;SDS011;4238;48.404;9.498;2022-07-06T04:26:09;3.83;;;3.55;;
8401;SDS011;4238;48.404;9.498;2022-07-06T04:28:38;3.47;;;3.23;;
8401;SDS011;4238;48.404;9.498;2022-07-06T04:31:06;4.65;;;4.25;;
8401;SDS011;4238;48.404;9.498;2022-07-06T04:33:33;4.33;;;3.67;;
8401;SDS011;4238;48.404;9.498;2022-07-06T04:36:00;3.83;;;3.63;;
8401;SDS011;4238;48.404;9.498;2022-07-06T04:38:29;5.55;;;3.53;;
8401;SDS011;4238;48.404;9.498;2022-07-06T04:40:56;4.05;;;3.85;;
8401;SDS011;4238;48.404;9.498;2022-07-06T04:43:23;3.90;;;3.60;;
8401;SDS011;4238;48.404;9.498;2022-07-06T04:45:51;4.72;;;4.25;;
8401;SDS011;4238;48.404;9.498;2022-07-06T04:48:18;4.20;;;3.90;;
8401;SDS011;4238;48.404;9.498;2022-07-06T04:50:46;5.28;;;4.10;;
8401;SDS011;4238;48.404;9.498;2022-07-06T04:53:13;3.88;;;3.58;;
8401;SDS011;4238;48.404;9.498;2022-07-06T04:55:40;4.00;;;3.70;;
8401;SDS011;4238;48.404;9.498;2022-07-06T04:58:07;4.25;;;3.85;;
8401;SDS011;4238;48.404;9.498;2022-07-06T05:00:34;4.32;;;4.03;;
8401;SDS011;4238;48.404;9.498;2022-07-06T05:03:02;4.85;;;4.45;;
8401;SDS011;4238;48.404;9.498;2022-07-06T05:05:29;4.13;;;3.78;;
8401;SDS011;4238;48.404;9.498;2022-07-06T05:07:56;3.95;;;3.72;;
8401;SDS011;4238;48.404;9.498;2022-07-06T05:10:23;4.57;;;4.18;;
8401;SDS011;4238;48.404;9.498;2022-07-06T05:12:50;4.75;;;4.40;;
8401;SDS011;4238;48.404;9.498;2022-07-06T05:15:17;4.57;;;4.25;;
8401;SDS011;4238;48.404;9.498;2022-07-06T05:17:44;4.60;;;4.30;;
8401;SDS011;4238;48.404;9.498;2022-07-06T05:20:12;4.38;;;3.97;;
8401;SDS011;4238;48.404;9.498;2022-07-06T05:22:39;4.10;;;3.80;;
8401;SDS011;4238;48.404;9.498;2022-07-06T05:25:06;4.03;;;3.70;;
8401;SDS011;4238;48.404;9.498;2022-07-06T05:27:34;3.97;;;3.72;;
8401;SDS011;4238;48.404;9.498;2022-07-06T05:30:01;4.35;;;4.05;;
8401;SDS011;4238;48.404;9.498;2022-07-06T05:32:28;4.00;;;3.70;;
8401;SDS011;4238;48.404;9.498;2022-07-06T05:34:55;4.43;;;4.03;;
8401;SDS011;4238;48.404;9.498;2022-07-06T05:37:23;5.03;;;4.20;;
8401;SDS011;4238;48.404;9.498;2022-07-06T05:39:50;4.10;;;3.80;;
8401;SDS011;4238;48.404;9.498;2022-07-06T05:42:17;5.32;;;4.35;;
8401;SDS011;4238;48.404;9.498;2022-07-06T05:44:44;4.30;;;4.05;;
8401;SDS011;4238;48.404;9.498;2022-07-06T05:47:11;7.60;;;3.90;;
8401;SDS011;4238;48.404;9.498;2022-07-06T05:49:55;3.88;;;3.60;;
8401;SDS011;4238;48.404;9.498;2022-07-06T05:52:42;4.28;;;3.90;;
8401;SDS011;4238;48.404;9.498;2022-07-06T05:55:11;4.15;;;3.85;;
8401;SDS011;4238;48.404;9.498;2022-07-06T05:57:38;3.70;;;3.40;;
8401;SDS011;4238;48.404;9.498;2022-07-06T06:00:06;3.63;;;3.42;;
8401;SDS011;4238;48.404;9.498;2022-07-06T06:02:38;3.85;;;3.50;;
8401;SDS011;4238;48.404;9.498;2022-07-06T06:05:06;4.20;;;3.90;;
8401;SDS011;4238;48.404;9.498;2022-07-06T06:07:34;4.90;;;3.53;;
8401;SDS011;4238;48.404;9.498;2022-07-06T06:10:04;4.07;;;3.78;;
8401;SDS011;4238;48.404;9.498;2022-07-06T06:12:32;3.70;;;3.40;;
8401;SDS011;4238;48.404;9.498;2022-07-06T06:14:59;3.35;;;3.15;;
8401;SDS011;4238;48.404;9.498;2022-07-06T06:17:27;3.65;;;3.42;;
8401;SDS011;4238;48.404;9.498;2022-07-06T06:19:54;3.95;;;3.63;;
8401;SDS011;4238;48.404;9.498;2022-07-06T06:22:21;3.70;;;3.40;;
8401;SDS011;4238;48.404;9.498;2022-07-06T06:24:48;3.65;;;3.45;;
8401;SDS011;4238;48.404;9.498;2022-07-06T06:27:16;3.55;;;3.35;;
8401;SDS011;4238;48.404;9.498;2022-07-06T06:29:44;3.70;;;3.35;;
8401;SDS011;4238;48.404;9.498;2022-07-06T06:32:11;3.63;;;3.33;;
8401;SDS011;4238;48.404;9.498;2022-07-06T06:34:38;3.75;;;3.47;;
8401;SDS011;4238;48.404;9.498;2022-07-06T06:37:08;4.43;;;3.50;;
8401;SDS011;4238;48.404;9.498;2022-07-06T06:39:35;4.10;;;3.50;;
8401;SDS011;4238;48.404;9.498;2022-07-06T06:42:02;3.67;;;3.35;;
8401;SDS011;4238;48.404;9.498;2022-07-06T06:44:31;4.50;;;3.28;;
8401;SDS011;4238;48.404;9.498;2022-07-06T06:46:58;3.55;;;3.25;;
8401;SDS011;4238;48.404;9.498;2022-07-06T06:49:25;3.88;;;3.28;;
8401;SDS011;4238;48.404;9.498;2022-07-06T06:51:52;3.72;;;3.35;;
8401;SDS011;4238;48.404;9.498;2022-07-06T06:54:19;3.70;;;3.40;;
8401;SDS011;4238;48.404;9.498;2022-07-06T06:56:46;3.65;;;3.33;;
8401;SDS011;4238;48.404;9.498;2022-07-06T06:59:13;3.75;;;3.45;;
8401;SDS011;4238;48.404;9.498;2022-07-06T07:01:41;6.88;;;3.42;;
8401;SDS011;4238;48.404;9.498;2022-07-06T07:04:08;3.83;;;3.53;;
8401;SDS011;4238;48.404;9.498;2022-07-06T07:06:35;3.97;;;3.53;;
8401;SDS011;4238;48.404;9.498;2022-07-06T07:09:02;3.28;;;2.97;;
8401;SDS011;4238;48.404;9.498;2022-07-06T07:11:30;4.03;;;3.63;;
8401;SDS011;4238;48.404;9.498;2022-07-06T07:13:57;3.90;;;3.53;;
8401;SDS011;4238;48.404;9.498;2022-07-06T07:16:25;3.47;;;3.28;;
8401;SDS011;4238;48.404;9.498;2022-07-06T07:18:53;3.60;;;3.30;;
8401;SDS011;4238;48.404;9.498;2022-07-06T07:21:20;3.78;;;3.58;;
8401;SDS011;4238;48.404;9.498;2022-07-06T07:23:47;5.53;;;3.78;;
8401;SDS011;4238;48.404;9.498;2022-07-06T07:26:15;3.47;;;3.17;;
8401;SDS011;4238;48.404;9.498;2022-07-06T07:28:42;4.43;;;3.65;;
8401;SDS011;4238;48.404;9.498;2022-07-06T07:31:09;3.90;;;3.50;;
8401;SDS011;4238;48.404;9.498;2022-07-06T07:33:36;5.65;;;3.85;;
8401;SDS011;4238;48.404;9.498;2022-07-06T07:36:04;4.43;;;3.13;;
8401;SDS011;4238;48.404;9.498;2022-07-06T07:38:31;3.60;;;3.40;;
8401;SDS011;4238;48.404;9.498;2022-07-06T07:40:58;4.97;;;3.53;;
8401;SDS011;4238;48.404;9.498;2022-07-06T07:43:25;3.70;;;3.40;;
8401;SDS011;4238;48.404;9.498;2022-07-06T07:45:52;4.05;;;3.65;;
8401;SDS011;4238;48.404;9.498;2022-07-06T07:48:19;3.50;;;3.28;;
8401;SDS011;4238;48.404;9.498;2022-07-06T07:50:46;3.58;;;3.20;;
8401;SDS011;4238;48.404;9.498;2022-07-06T07:53:15;3.47;;;3.17;;
8401;SDS011;4238;48.404;9.498;2022-07-06T07:55:41;3.47;;;3.28;;
8401;SDS011;4238;48.404;9.498;2022-07-06T07:58:08;6.25;;;3.33;;
8401;SDS011;4238;48.404;9.498;2022-07-06T08:00:35;3.97;;;3.67;;
8401;SDS011;4238;48.404;9.498;2022-07-06T08:03:02;5.40;;;3.60;;
8401;SDS011;4238;48.404;9.498;2022-07-06T08:05:30;3.88;;;3.22;;
8401;SDS011;4238;48.404;9.498;2022-07-06T08:07:57;5.05;;;3.15;;
8401;SDS011;4238;48.404;9.498;2022-07-06T08:10:25;3.50;;;3.28;;
8401;SDS011;4238;48.404;9.498;2022-07-06T08:12:52;3.65;;;3.35;;
8401;SDS011;4238;48.404;9.498;2022-07-06T08:15:19;3.72;;;3.40;;
8401;SDS011;4238;48.404;9.498;2022-07-06T08:17:46;5.28;;;3.60;;
8401;SDS011;4238;48.404;9.498;2022-07-06T08:20:13;3.13;;;2.90;;
8401;SDS011;4238;48.404;9.498;2022-07-06T08:22:41;3.40;;;3.10;;
8401;SDS011;4238;48.404;9.498;2022-07-06T08:25:08;3.85;;;3.42;;
8401;SDS011;4238;48.404;9.498;2022-07-06T08:27:37;3.35;;;3.13;;
8401;SDS011;4238;48.404;9.498;2022-07-06T08:30:04;5.63;;;3.13;;
8401;SDS011;4238;48.404;9.498;2022-07-06T08:32:31;6.10;;;3.60;;
8401;SDS011;4238;48.404;9.498;2022-07-06T08:34:58;3.83;;;3.53;;
8401;SDS011;4238;48.404;9.498;2022-07-06T08:37:25;4.60;;;3.40;;
8401;SDS011;4238;48.404;9.498;2022-07-06T08:39:52;3.55;;;3.25;;
8401;SDS011;4238;48.404;9.498;2022-07-06T08:42:19;4.50;;;3.58;;
8401;SDS011;4238;48.404;9.498;2022-07-06T08:44:48;3.40;;;3.20;;
8401;SDS011;4238;48.404;9.498;2022-07-06T08:47:19;3.53;;;3.22;;
8401;SDS011;4238;48.404;9.498;2022-07-06T08:49:48;3.28;;;2.97;;
8401;SDS011;4238;48.404;9.498;2022-07-06T08:52:15;4.40;;;3.45;;
8401;SDS011;4238;48.404;9.498;2022-07-06T08:54:42;3.30;;;2.85;;
8401;SDS011;4238;48.404;9.498;2022-07-06T08:57:09;6.05;;;3.30;;
8401;SDS011;4238;48.404;9.498;2022-07-06T08:59:36;3.28;;;3.00;;
8401;SDS011;4238;48.404;9.498;2022-07-06T09:02:05;6.93;;;3.28;;
8401;SDS011;4238;48.404;9.498;2022-07-06T09:04:33;3.38;;;3.08;;
8401;SDS011;4238;48.404;9.498;2022-07-06T09:07:03;3.35;;;3.05;;
8401;SDS011;4238;48.404;9.498;2022-07-06T09:09:30;4.25;;;3.22;;
8401;SDS011;4238;48.404;9.498;2022-07-06T09:11:57;3.10;;;2.90;;
8401;SDS011;4238;48.404;9.498;2022-07-06T09:14:24;3.10;;;2.90;;
8401;SDS011;4238;48.404;9.498;2022-07-06T09:16:52;3.15;;;2.88;;
8401;SDS011;4238;48.404;9.498;2022-07-06T09:19:29;3.28;;;3.00;;
8401;SDS011;4238;48.404;9.498;2022-07-06T09:21:57;3.03;;;2.83;;
8401;SDS011;4238;48.404;9.498;2022-07-06T09:24:23;4.15;;;3.10;;
8401;SDS011;4238;48.404;9.498;2022-07-06T09:26:51;2.95;;;2.85;;
8401;SDS011;4238;48.404;9.498;2022-07-06T09:29:26;3.53;;;3.20;;
8401;SDS011;4238;48.404;9.498;2022-07-06T09:31:58;3.50;;;3.30;;
8401;SDS011;4238;48.404;9.498;2022-07-06T09:34:41;3.20;;;2.90;;
8401;SDS011;4238;48.404;9.498;2022-07-06T09:37:08;2.88;;;2.67;;
8401;SDS011;4238;48.404;9.498;2022-07-06T09:39:36;3.20;;;2.78;;
8401;SDS011;4238;48.404;9.498;2022-07-06T09:42:03;2.80;;;2.53;;
8401;SDS011;4238;48.404;9.498;2022-07-06T09:44:33;4.55;;;2.80;;
8401;SDS011;4238;48.404;9.498;2022-07-06T09:47:03;3.10;;;2.80;;
8401;SDS011;4238;48.404;9.498;2022-07-06T09:49:31;2.78;;;2.60;;
8401;SDS011;4238;48.404;9.498;2022-07-06T09:52:01;2.80;;;2.60;;
8401;SDS011;4238;48.404;9.498;2022-07-06T09:54:30;3.13;;;2.80;;
8401;SDS011;4238;48.404;9.498;2022-07-06T09:56:58;3.35;;;2.78;;
8401;SDS011;4238;48.404;9.498;2022-07-06T09:59:25;3.47;;;2.90;;
8401;SDS011;4238;48.404;9.498;2022-07-06T10:01:55;2.85;;;2.65;;
8401;SDS011;4238;48.404;9.498;2022-07-06T10:04:24;2.58;;;2.47;;
8401;SDS011;4238;48.404;9.498;2022-07-06T10:06:52;3.00;;;2.70;;
8401;SDS011;4238;48.404;9.498;2022-07-06T10:09:23;3.85;;;2.60;;
8401;SDS011;4238;48.404;9.498;2022-07-06T10:11:52;2.70;;;2.50;;
8401;SDS011;4238;48.404;9.498;2022-07-06T10:14:22;3.10;;;2.75;;
8401;SDS011;4238;48.404;9.498;2022-07-06T10:16:51;3.35;;;2.60;;
8401;SDS011;4238;48.404;9.498;2022-07-06T10:19:19;3.08;;;2.70;;
8401;SDS011;4238;48.404;9.498;2022-07-06T10:21:47;3.38;;;3.08;;
8401;SDS011;4238;48.404;9.498;2022-07-06T10:24:14;6.65;;;3.00;;
8401;SDS011;4238;48.404;9.498;2022-07-06T10:26:43;3.08;;;2.88;;
8401;SDS011;4238;48.404;9.498;2022-07-06T10:29:11;2.83;;;2.72;;
8401;SDS011;4238;48.404;9.498;2022-07-06T10:31:39;3.25;;;2.90;;
8401;SDS011;4238;48.404;9.498;2022-07-06T10:34:10;3.35;;;3.05;;
8401;SDS011;4238;48.404;9.498;2022-07-06T10:36:39;2.88;;;2.67;;
8401;SDS011;4238;48.404;9.498;2022-07-06T10:39:06;3.55;;;3.00;;
8401;SDS011;4238;48.404;9.498;2022-07-06T10:41:52;3.50;;;3.20;;
8401;SDS011;4238;48.404;9.498;2022-07-06T10:44:20;3.00;;;2.80;;
8401;SDS011;4238;48.404;9.498;2022-07-06T10:46:52;4.75;;;3.00;;
8401;SDS011;4238;48.404;9.498;2022-07-06T10:49:20;2.85;;;2.65;;
8401;SDS011;4238;48.404;9.498;2022-07-06T10:51:47;3.30;;;2.95;;
8401;SDS011;4238;48.404;9.498;2022-07-06T10:54:15;3.25;;;3.05;;
8401;SDS011;4238;48.404;9.498;2022-07-06T10:56:44;3.28;;;3.00;;
8401;SDS011;4238;48.404;9.498;2022-07-06T10:59:13;3.13;;;2.85;;
8401;SDS011;4238;48.404;9.498;2022-07-06T11:02:10;3.00;;;2.80;;
8401;SDS011;4238;48.404;9.498;2022-07-06T11:04:39;3.17;;;2.97;;
8401;SDS011;4238;48.404;9.498;2022-07-06T11:07:09;3.28;;;3.08;;
8401;SDS011;4238;48.404;9.498;2022-07-06T11:09:37;2.80;;;2.67;;
8401;SDS011;4238;48.404;9.498;2022-07-06T11:12:14;3.15;;;2.90;;
8401;SDS011;4238;48.404;9.498;2022-07-06T11:14:45;3.42;;;2.97;;
8401;SDS011;4238;48.404;9.498;2022-07-06T11:17:16;2.85;;;2.70;;
8401;SDS011;4238;48.404;9.498;2022-07-06T11:19:48;3.20;;;2.90;;
8401;SDS011;4238;48.404;9.498;2022-07-06T11:22:16;3.65;;;3.17;;
8401;SDS011;4238;48.404;9.498;2022-07-06T11:27:20;3.35;;;3.08;;
8401;SDS011;4238;48.404;9.498;2022-07-06T11:29:50;3.25;;;2.63;;
8401;SDS011;4238;48.404;9.498;2022-07-06T11:32:20;2.90;;;2.70;;
8401;SDS011;4238;48.404;9.498;2022-07-06T11:34:50;3.78;;;3.10;;
8401;SDS011;4238;48.404;9.498;2022-07-06T11:37:18;2.88;;;2.67;;
8401;SDS011;4238;48.404;9.498;2022-07-06T11:39:45;2.97;;;2.72;;
8401;SDS011;4238;48.404;9.498;2022-07-06T11:42:16;2.90;;;2.70;;
8401;SDS011;4238;48.404;9.498;2022-07-06T11:44:44;3.47;;;3.17;;
8401;SDS011;4238;48.404;9.498;2022-07-06T11:47:13;2.88;;;2.67;;
8401;SDS011;4238;48.404;9.498;2022-07-06T11:49:40;3.28;;;3.08;;
8401;SDS011;4238;48.404;9.498;2022-07-06T11:52:12;4.82;;;2.85;;
8401;SDS011;4238;48.404;9.498;2022-07-06T11:54:39;2.95;;;2.50;;
8401;SDS011;4238;48.404;9.498;2022-07-06T11:57:09;2.92;;;2.72;;
8401;SDS011;4238;48.404;9.498;2022-07-06T11:59:37;3.00;;;2.80;;
8401;SDS011;4238;48.404;9.498;2022-07-06T12:02:06;3.38;;;2.95;;
8401;SDS011;4238;48.404;9.498;2022-07-06T12:04:36;3.42;;;3.05;;
8401;SDS011;4238;48.404;9.498;2022-07-06T12:07:06;2.85;;;2.67;;
8401;SDS011;4238;48.404;9.498;2022-07-06T12:09:37;2.70;;;2.58;;
8401;SDS011;4238;48.404;9.498;2022-07-06T12:12:05;3.22;;;3.03;;
8401;SDS011;4238;48.404;9.498;2022-07-06T12:14:34;2.85;;;2.67;;
8401;SDS011;4238;48.404;9.498;2022-07-06T12:17:03;3.00;;;2.80;;
8401;SDS011;4238;48.404;9.498;2022-07-06T12:19:31;2.83;;;2.63;;
8401;SDS011;4238;48.404;9.498;2022-07-06T12:21:59;3.53;;;2.92;;
8401;SDS011;4238;48.404;9.498;2022-07-06T12:24:28;3.13;;;2.67;;
8401;SDS011;4238;48.404;9.498;2022-07-06T12:26:56;2.65;;;2.50;;
8401;SDS011;4238;48.404;9.498;2022-07-06T12:29:24;2.67;;;2.58;;
8401;SDS011;4238;48.404;9.498;2022-07-06T12:31:52;3.20;;;3.00;;
8401;SDS011;4238;48.404;9.498;2022-07-06T12:34:20;3.35;;;3.15;;
8401;SDS011;4238;48.404;9.498;2022-07-06T12:36:48;3.08;;;2.88;;
8401;SDS011;4238;48.404;9.498;2022-07-06T12:39:19;6.45;;;3.33;;
8401;SDS011;4238;48.404;9.498;2022-07-06T12:41:47;5.55;;;3.00;;
8401;SDS011;4238;48.404;9.498;2022-07-06T12:44:16;3.70;;;3.20;;
8401;SDS011;4238;48.404;9.498;2022-07-06T12:46:44;3.47;;;3.17;;
8401;SDS011;4238;48.404;9.498;2022-07-06T12:49:16;3.03;;;2.78;;
8401;SDS011;4238;48.404;9.498;2022-07-06T12:51:48;2.72;;;2.63;;
8401;SDS011;4238;48.404;9.498;2022-07-06T12:54:21;4.38;;;3.13;;
8401;SDS011;4238;48.404;9.498;2022-07-06T12:56:56;3.13;;;2.78;;
8401;SDS011;4238;48.404;9.498;2022-07-06T12:59:34;3.10;;;2.90;;
8401;SDS011;4238;48.404;9.498;2022-07-06T13:02:03;3.10;;;2.80;;
8401;SDS011;4238;48.404;9.498;2022-07-06T13:04:31;3.45;;;3.25;;
8401;SDS011;4238;48.404;9.498;2022-07-06T13:06:59;3.20;;;2.92;;
8401;SDS011;4238;48.404;9.498;2022-07-06T13:09:28;3.83;;;3.20;;
8401;SDS011;4238;48.404;9.498;2022-07-06T13:11:56;3.22;;;3.00;;
8401;SDS011;4238;48.404;9.498;2022-07-06T13:14:23;3.10;;;2.88;;
8401;SDS011;4238;48.404;9.498;2022-07-06T13:16:50;3.13;;;2.83;;
8401;SDS011;4238;48.404;9.498;2022-07-06T13:19:19;3.03;;;2.78;;
8401;SDS011;4238;48.404;9.498;2022-07-06T13:21:46;4.32;;;3.05;;
8401;SDS011;4238;48.404;9.498;2022-07-06T13:24:13;7.43;;;3.40;;
8401;SDS011;4238;48.404;9.498;2022-07-06T13:26:41;3.55;;;3.20;;
8401;SDS011;4238;48.404;9.498;2022-07-06T13:29:08;4.18;;;3.28;;
8401;SDS011;4238;48.404;9.498;2022-07-06T13:31:36;3.15;;;2.85;;
8401;SDS011;4238;48.404;9.498;2022-07-06T13:34:04;3.65;;;3.35;;
8401;SDS011;4238;48.404;9.498;2022-07-06T13:36:32;3.42;;;3.10;;
8401;SDS011;4238;48.404;9.498;2022-07-06T13:39:00;4.47;;;3.35;;
8401;SDS011;4238;48.404;9.498;2022-07-06T13:41:27;3.22;;;3.03;;
8401;SDS011;4238;48.404;9.498;2022-07-06T13:43:56;3.53;;;3.22;;
8401;SDS011;4238;48.404;9.498;2022-07-06T13:46:23;3.00;;;2.80;;
8401;SDS011;4238;48.404;9.498;2022-07-06T13:48:51;3.33;;;3.13;;
8401;SDS011;4238;48.404;9.498;2022-07-06T13:51:18;3.22;;;2.92;;
8401;SDS011;4238;48.404;9.498;2022-07-06T13:53:45;3.40;;;3.10;;
8401;SDS011;4238;48.404;9.498;2022-07-06T13:56:12;3.67;;;3.38;;
8401;SDS011;4238;48.404;9.498;2022-07-06T13:58:39;3.72;;;3.38;;
8401;SDS011;4238;48.404;9.498;2022-07-06T14:01:08;3.60;;;3.30;;
8401;SDS011;4238;48.404;9.498;2022-07-06T14:03:35;3.40;;;3.10;;
8401;SDS011;4238;48.404;9.498;2022-07-06T14:06:03;3.55;;;3.10;;
8401;SDS011;4238;48.404;9.498;2022-07-06T14:08:32;4.07;;;3.55;;
8401;SDS011;4238;48.404;9.498;2022-07-06T14:10:59;4.80;;;3.38;;
8401;SDS011;4238;48.404;9.498;2022-07-06T14:13:27;4.32;;;4.03;;
8401;SDS011;4238;48.404;9.498;2022-07-06T14:15:54;4.03;;;3.72;;
8401;SDS011;4238;48.404;9.498;2022-07-06T14:18:22;4.57;;;4.18;;
8401;SDS011;4238;48.404;9.498;2022-07-06T14:20:50;4.00;;;3.60;;
8401;SDS011;4238;48.404;9.498;2022-07-06T14:23:18;4.50;;;3.33;;
8401;SDS011;4238;48.404;9.498;2022-07-06T14:25:46;4.03;;;3.75;;
8401;SDS011;4238;48.404;9.498;2022-07-06T14:28:19;4.63;;;3.83;;
8401;SDS011;4238;48.404;9.498;2022-07-06T14:30:46;4.22;;;3.92;;
8401;SDS011;4238;48.404;9.498;2022-07-06T14:33:13;6.05;;;3.70;;
8401;SDS011;4238;48.404;9.498;2022-07-06T14:35:44;3.90;;;3.53;;
8401;SDS011;4238;48.404;9.498;2022-07-06T14:38:13;4.20;;;3.72;;
8401;SDS011;4238;48.404;9.498;2022-07-06T14:40:40;4.57;;;4.18;;
8401;SDS011;4238;48.404;9.498;2022-07-06T14:43:08;4.93;;;3.80;;
8401;SDS011;4238;48.404;9.498;2022-07-06T14:45:35;4.85;;;3.58;;
8401;SDS011;4238;48.404;9.498;2022-07-06T14:48:02;4.28;;;3.83;;
8401;SDS011;4238;48.404;9.498;2022-07-06T14:50:33;5.30;;;3.95;;
8401;SDS011;4238;48.404;9.498;2022-07-06T14:53:02;5.20;;;4.20;;
8401;SDS011;4238;48.404;9.498;2022-07-06T14:55:29;8.10;;;4.30;;
8401;SDS011;4238;48.404;9.498;2022-07-06T14:57:56;4.55;;;4.15;;
8401;SDS011;4238;48.404;9.498;2022-07-06T15:00:23;4.60;;;4.18;;
8401;SDS011;4238;48.404;9.498;2022-07-06T15:02:50;4.85;;;4.32;;
8401;SDS011;4238;48.404;9.498;2022-07-06T15:05:17;7.05;;;4.70;;
8401;SDS011;4238;48.404;9.498;2022-07-06T15:07:44;4.38;;;3.97;;
8401;SDS011;4238;48.404;9.498;2022-07-06T15:10:13;4.65;;;4.05;;
8401;SDS011;4238;48.404;9.498;2022-07-06T15:12:40;5.80;;;4.38;;
8401;SDS011;4238;48.404;9.498;2022-07-06T15:15:07;5.15;;;4.05;;
8401;SDS011;4238;48.404;9.498;2022-07-06T15:17:35;4.25;;;3.88;;
8401;SDS011;4238;48.404;9.498;2022-07-06T15:20:02;5.10;;;4.60;;
8401;SDS011;4238;48.404;9.498;2022-07-06T15:22:29;6.47;;;4.90;;